Time;durP1;ratioP1;P1;durP2;ratioP2;P2;SDS_P1;SDS_P2;PMS_P1;PMS_P2;Temp;Humidity;BMP_temperature;BMP_pressure;BME280_temperature;BME280_humidity;BME280_pressure;Samples;Min_cycle;Max_cycle;Signal;HPM_P1;HPM_P2
2022/05/02 00:00:39;;;;;;;8.40;4.75;;;;;;;4.91;93.37;102287.69;5049313;28;20089;-72
2022/05/02 00:03:04;;;;;;;5.95;4.40;;;;;;;4.91;93.29;102271.94;5064924;28;20033;-72
2022/05/02 00:05:31;;;;;;;6.78;4.40;;;;;;;4.91;93.49;102279.81;5065342;28;20035;-72
2022/05/02 00:07:56;;;;;;;6.85;4.97;;;;;;;4.92;93.31;102281.56;5060831;28;20032;-72
2022/05/02 00:10:22;;;;;;;6.28;4.68;;;;;;;4.94;93.20;102273.66;5065117;28;20047;-73
2022/05/02 00:12:48;;;;;;;7.30;4.53;;;;;;;4.96;93.42;102271.94;5047169;28;20031;-72
2022/05/02 00:15:14;;;;;;;7.47;4.35;;;;;;;4.98;93.13;102276.31;5064691;28;20040;-72
2022/05/02 00:17:58;;;;;;;6.38;4.90;;;;;;;4.98;93.47;102273.69;5065279;28;20032;-72
2022/05/02 00:20:25;;;;;;;6.60;4.53;;;;;;;5.01;93.77;102273.69;5046489;28;20490;-72
2022/05/02 00:22:50;;;;;;;8.02;4.82;;;;;;;5.00;93.77;102271.94;5064992;28;20114;-72
2022/05/02 00:25:16;;;;;;;7.30;4.22;;;;;;;4.98;93.91;102268.44;5064966;28;20971;-72
2022/05/02 00:27:42;;;;;;;5.95;4.38;;;;;;;4.95;94.01;102263.19;5046582;28;20029;-72
2022/05/02 00:30:10;;;;;;;7.35;4.80;;;;;;;4.94;94.14;102266.69;5047090;28;20021;-72
2022/05/02 00:32:35;;;;;;;8.52;4.68;;;;;;;4.93;93.74;102262.31;5047139;28;20030;-72
2022/05/02 00:35:01;;;;;;;7.50;4.93;;;;;;;4.91;93.97;102260.56;5041847;28;20036;-73
2022/05/02 00:37:27;;;;;;;6.43;4.45;;;;;;;4.91;94.34;102255.31;5046878;28;20123;-72
2022/05/02 00:39:52;;;;;;;7.70;5.07;;;;;;;4.89;93.98;102257.91;5064847;28;20036;-72
2022/05/02 00:42:20;;;;;;;7.30;4.88;;;;;;;4.90;94.88;102254.41;5064757;28;20503;-73
2022/05/02 00:44:46;;;;;;;6.88;4.85;;;;;;;4.88;93.95;102257.06;5047891;28;20547;-72
2022/05/02 00:47:15;;;;;;;8.40;4.90;;;;;;;4.88;94.73;102253.53;5046452;28;20054;-72
2022/05/02 00:49:41;;;;;;;7.22;4.88;;;;;;;4.86;94.32;102248.28;5064778;28;20115;-72
2022/05/02 00:52:07;;;;;;;6.50;4.65;;;;;;;4.85;94.61;102250.94;5058523;28;20153;-72
2022/05/02 00:54:33;;;;;;;7.13;4.72;;;;;;;4.86;94.68;102244.81;5063138;28;20430;-72
2022/05/02 00:56:59;;;;;;;8.10;4.88;;;;;;;4.87;94.64;102243.94;5042163;28;20502;-72
2022/05/02 00:59:27;;;;;;;5.68;4.20;;;;;;;4.88;95.15;102248.28;5046722;28;20448;-72
2022/05/02 01:01:52;;;;;;;7.65;4.72;;;;;;;4.87;94.56;102243.94;5064867;28;20032;-72
2022/05/02 01:04:18;;;;;;;6.95;4.78;;;;;;;4.86;95.17;102243.03;5046036;28;20540;-72
2022/05/02 01:09:28;;;;;;;7.88;5.00;;;;;;;4.86;94.63;102243.03;5049228;28;20499;-72
2022/05/02 01:11:55;;;;;;;6.78;4.20;;;;;;;4.84;95.29;102246.53;5024812;28;20032;-72
2022/05/02 01:14:20;;;;;;;6.15;4.53;;;;;;;4.81;94.74;102243.91;5029395;28;20078;-72
2022/05/02 01:16:46;;;;;;;8.40;4.68;;;;;;;4.79;95.09;102246.53;5046163;28;20027;-72
2022/05/02 01:19:11;;;;;;;7.63;5.18;;;;;;;4.78;95.40;102238.69;5065215;28;20110;-72
2022/05/02 01:21:38;;;;;;;7.13;4.68;;;;;;;4.73;95.23;102239.53;5047589;28;20031;-72
2022/05/02 01:24:04;;;;;;;8.25;5.25;;;;;;;4.70;95.04;102242.16;5063702;28;20153;-72
2022/05/02 01:26:30;;;;;;;8.80;4.97;;;;;;;4.67;94.90;102247.41;5058739;28;20033;-72
2022/05/02 01:28:58;;;;;;;7.82;4.43;;;;;;;4.63;95.13;102245.63;5045962;28;20185;-72
2022/05/02 01:31:24;;;;;;;7.90;4.65;;;;;;;4.58;95.19;102237.75;5040554;28;20036;-72
2022/05/02 01:33:51;;;;;;;9.55;5.18;;;;;;;4.54;95.22;102245.63;5029740;28;20033;-72
2022/05/02 01:36:18;;;;;;;7.90;4.72;;;;;;;4.47;94.81;102245.59;5041868;28;20611;-72
2022/05/02 01:38:43;;;;;;;6.60;4.32;;;;;;;4.42;95.66;102242.09;5063160;28;20059;-72
2022/05/02 01:41:12;;;;;;;6.80;4.57;;;;;;;4.39;95.81;102238.56;5058828;28;20095;-72
2022/05/02 01:43:39;;;;;;;7.30;4.57;;;;;;;4.38;95.41;102239.44;5045844;28;20032;-72
2022/05/02 01:46:06;;;;;;;8.13;5.28;;;;;;;4.33;95.88;102242.06;5062766;28;20040;-72
2022/05/02 01:48:32;;;;;;;8.75;4.43;;;;;;;4.31;95.78;102238.56;5046399;28;20045;-72
2022/05/02 01:50:58;;;;;;;7.10;4.45;;;;;;;4.27;96.08;102239.41;5044781;28;20020;-72
2022/05/02 01:53:24;;;;;;;9.85;5.07;;;;;;;4.24;95.98;102239.44;5061786;28;20556;-72
2022/05/02 01:55:50;;;;;;;7.18;4.53;;;;;;;4.21;95.85;102235.03;5063781;28;20122;-72
2022/05/02 01:58:16;;;;;;;7.57;5.13;;;;;;;4.17;96.16;102238.50;5063489;28;20044;-71
2022/05/02 02:00:41;;;;;;;8.82;5.20;;;;;;;4.13;96.28;102240.25;5046192;28;20036;-72
2022/05/02 02:03:07;;;;;;;7.90;5.13;;;;;;;4.14;96.41;102235.91;5045599;28;20036;-72
2022/05/02 02:05:51;;;;;;;10.02;5.13;;;;;;;4.16;97.32;102234.16;5044990;28;20044;-72
2022/05/02 02:08:22;;;;;;;7.53;5.28;;;;;;;4.19;97.28;102236.75;5064128;28;20039;-72
2022/05/02 02:10:49;;;;;;;10.07;5.60;;;;;;;4.21;97.83;102233.28;5063116;28;20427;-72
2022/05/02 02:13:16;;;;;;;8.55;5.55;;;;;;;4.21;97.50;102230.66;5044633;28;20043;-72
2022/05/02 02:15:41;;;;;;;9.15;5.38;;;;;;;4.23;97.96;102229.81;5057877;28;20364;-71
2022/05/02 02:18:07;;;;;;;7.97;5.32;;;;;;;4.23;97.65;102227.19;5063883;28;20051;-72
2022/05/02 02:20:33;;;;;;;6.28;4.68;;;;;;;4.19;97.08;102234.13;5045991;28;20428;-71
2022/05/02 02:22:59;;;;;;;7.82;5.00;;;;;;;4.15;97.25;102228.00;5045092;28;20043;-72
2022/05/02 02:25:25;;;;;;;8.15;5.30;;;;;;;4.14;97.71;102228.03;5045760;28;20033;-72
2022/05/02 02:27:51;;;;;;;7.95;5.28;;;;;;;4.12;97.63;102233.25;5047226;28;20473;-72
2022/05/02 02:30:17;;;;;;;7.75;5.00;;;;;;;4.10;97.54;102234.13;5049459;28;20039;-72
2022/05/02 02:32:43;;;;;;;8.15;5.32;;;;;;;4.05;97.40;102237.59;5067562;28;20030;-72
2022/05/02 02:35:08;;;;;;;7.45;4.88;;;;;;;4.00;96.92;102231.47;5068169;28;20105;-72
2022/05/02 02:37:34;;;;;;;9.23;5.50;;;;;;;3.97;97.22;102233.19;5068321;28;20919;-71
2022/05/02 02:39:59;;;;;;;9.50;5.53;;;;;;;3.93;97.59;102232.31;5049512;28;20487;-71
2022/05/02 02:42:25;;;;;;;7.93;4.80;;;;;;;3.88;97.74;102224.41;5049210;28;20027;-72
2022/05/02 02:44:51;;;;;;;6.45;4.55;;;;;;;3.87;98.10;102232.28;5048955;28;20103;-72
2022/05/02 02:47:17;;;;;;;7.00;4.82;;;;;;;3.83;98.70;102231.38;5049125;28;20036;-72
2022/05/02 02:49:42;;;;;;;7.82;4.32;;;;;;;3.78;98.50;102228.75;5048593;28;20025;-71
2022/05/02 02:52:08;;;;;;;7.57;4.70;;;;;;;3.74;98.19;102231.31;5014793;28;20040;-71
2022/05/02 02:54:34;;;;;;;7.03;4.50;;;;;;;3.67;98.45;102222.56;5066403;28;20042;-71
2022/05/02 02:57:00;;;;;;;7.10;4.88;;;;;;;3.64;98.90;102226.03;5049373;28;20041;-72
2022/05/02 02:59:25;;;;;;;7.70;4.80;;;;;;;3.60;98.65;102224.25;5049079;28;20046;-72
2022/05/02 03:01:51;;;;;;;8.75;5.22;;;;;;;3.57;99.09;102213.78;5067166;28;20395;-72
2022/05/02 03:07:01;;;;;;;7.45;5.30;;;;;;;3.50;99.43;102215.47;5052056;28;20033;-72
2022/05/02 03:09:28;;;;;;;8.02;4.75;;;;;;;3.48;99.36;102214.59;5049933;28;20043;-72
2022/05/02 03:11:53;;;;;;;8.48;5.43;;;;;;;3.44;99.26;102212.84;5046342;28;20150;-72
2022/05/02 03:14:19;;;;;;;10.65;5.57;;;;;;;3.42;99.81;102211.06;5050963;28;20543;-72
2022/05/02 03:16:44;;;;;;;8.02;4.82;;;;;;;3.39;99.58;102214.53;5050744;28;20098;-72
2022/05/02 03:19:10;;;;;;;8.65;5.15;;;;;;;3.36;100.00;102211.88;5070063;28;20032;-72
2022/05/02 03:21:36;;;;;;;8.98;5.40;;;;;;;3.36;100.00;102214.50;5068342;28;20044;-72
2022/05/02 03:24:01;;;;;;;7.30;4.82;;;;;;;3.35;100.00;102208.41;5068589;28;20040;-72
2022/05/02 03:26:27;;;;;;;9.85;5.70;;;;;;;3.34;100.00;102209.28;5049804;28;20251;-73
2022/05/02 03:28:52;;;;;;;7.90;5.65;;;;;;;3.33;100.00;102204.88;5067788;28;20024;-72
2022/05/02 03:31:19;;;;;;;10.32;5.82;;;;;;;3.33;100.00;102204.03;5068207;28;20028;-72
2022/05/02 03:33:44;;;;;;;9.18;5.85;;;;;;;3.33;100.00;102201.41;5050145;28;20141;-72
2022/05/02 03:36:10;;;;;;;7.97;5.60;;;;;;;3.29;100.00;102205.75;5049524;28;20071;-72
2022/05/02 03:38:35;;;;;;;9.73;6.00;;;;;;;3.29;100.00;102208.38;5067166;28;20070;-72
2022/05/02 03:41:01;;;;;;;10.98;6.72;;;;;;;3.28;100.00;102205.72;5048717;28;20032;-72
2022/05/02 03:43:26;;;;;;;8.77;5.80;;;;;;;3.27;100.00;102204.84;5048995;28;20028;-72
2022/05/02 03:45:53;;;;;;;11.77;6.95;;;;;;;3.24;100.00;102203.09;5067394;28;20479;-72
2022/05/02 03:48:19;;;;;;;10.38;6.65;;;;;;;3.23;100.00;102208.31;5048752;28;20057;-72
2022/05/02 03:50:45;;;;;;;11.35;6.72;;;;;;;3.19;100.00;102210.03;5065259;28;20031;-72
2022/05/02 03:53:15;;;;;;;11.45;6.82;;;;;;;3.16;100.00;102207.38;5049122;28;20410;-72
2022/05/02 03:55:42;;;;;;;9.73;6.10;;;;;;;3.14;100.00;102205.66;5066920;28;20056;-72
2022/05/02 03:58:09;;;;;;;10.52;6.47;;;;;;;3.12;100.00;102210.88;5044598;28;20029;-72
2022/05/02 04:00:35;;;;;;;11.50;6.53;;;;;;;3.12;100.00;102210.88;5065569;28;20802;-72
2022/05/02 04:03:00;;;;;;;11.52;6.70;;;;;;;3.11;100.00;102215.22;5067463;28;20028;-72
2022/05/02 04:05:26;;;;;;;9.15;6.15;;;;;;;3.12;100.00;102216.97;5066989;28;20036;-73
2022/05/02 04:07:52;;;;;;;10.80;6.40;;;;;;;3.11;100.00;102223.06;5047990;28;20111;-72
2022/05/02 04:10:18;;;;;;;10.27;6.10;;;;;;;3.10;100.00;102221.31;5065358;28;20061;-72
2022/05/02 04:12:43;;;;;;;11.38;6.70;;;;;;;3.08;100.00;102220.44;5067063;28;20383;-72
2022/05/02 04:15:09;;;;;;;11.52;6.18;;;;;;;3.07;100.00;102212.56;5049829;28;20036;-72
2022/05/02 04:17:36;;;;;;;10.75;6.40;;;;;;;3.05;100.00;102211.69;5067180;28;20060;-72
2022/05/02 04:20:02;;;;;;;11.20;6.22;;;;;;;3.04;100.00;102217.78;5060290;28;20613;-72
2022/05/02 04:22:28;;;;;;;14.70;7.07;;;;;;;3.03;100.00;102216.91;5066998;28;20066;-72
2022/05/02 04:24:53;;;;;;;12.48;6.80;;;;;;;3.06;100.00;102218.66;5049812;28;20494;-72
2022/05/02 04:27:19;;;;;;;12.48;7.57;;;;;;;3.06;100.00;102210.81;5061460;28;20558;-73
2022/05/02 04:29:45;;;;;;;12.35;7.10;;;;;;;3.08;100.00;102216.94;5048870;28;20047;-72
2022/05/02 04:32:10;;;;;;;13.02;7.55;;;;;;;3.10;100.00;102218.69;5033017;28;20539;-72
2022/05/02 04:34:36;;;;;;;13.55;7.45;;;;;;;3.09;100.00;102216.94;5067730;28;20106;-73
2022/05/02 04:37:01;;;;;;;13.95;7.07;;;;;;;3.10;100.00;102223.03;5066774;28;20028;-72
2022/05/02 04:39:27;;;;;;;15.55;7.30;;;;;;;3.11;100.00;102220.44;5066649;28;20059;-72
2022/05/02 04:41:53;;;;;;;13.43;7.80;;;;;;;3.16;100.00;102219.63;5065746;28;20035;-72
2022/05/02 04:44:18;;;;;;;12.32;7.10;;;;;;;3.17;100.00;102214.41;5059528;28;20078;-73
2022/05/02 04:46:44;;;;;;;11.82;7.00;;;;;;;3.19;100.00;102223.13;5049260;28;20107;-73
2022/05/02 04:49:09;;;;;;;13.88;7.65;;;;;;;3.21;100.00;102217.91;5043191;28;20032;-73
2022/05/02 04:51:35;;;;;;;12.43;7.10;;;;;;;3.23;100.00;102218.78;5047724;28;20398;-72
2022/05/02 04:54:00;;;;;;;13.75;7.47;;;;;;;3.29;100.00;102221.47;5066649;28;20070;-72
2022/05/02 04:56:26;;;;;;;14.50;7.43;;;;;;;3.35;100.00;102220.63;5059792;28;20044;-72
2022/05/02 04:58:51;;;;;;;13.13;7.00;;;;;;;3.37;100.00;102218.88;5048095;28;20492;-72
2022/05/02 05:01:17;;;;;;;12.80;7.25;;;;;;;3.39;100.00;102225.88;5048785;28;20024;-72
2022/05/02 05:03:43;;;;;;;13.13;7.75;;;;;;;3.44;100.00;102230.28;5066805;28;20036;-71
2022/05/02 05:06:08;;;;;;;14.77;7.97;;;;;;;3.48;100.00;102234.69;5048639;28;20110;-71
2022/05/02 05:08:34;;;;;;;14.32;7.63;;;;;;;3.52;100.00;102234.72;5047674;28;20040;-71
2022/05/02 05:11:37;;;;;;;14.30;7.45;;;;;;;3.57;100.00;102229.50;5065900;28;20035;-72
2022/05/02 05:17:18;;;;;;;12.43;7.65;;;;;;;3.72;100.00;102236.56;5064711;28;20582;-71
2022/05/02 05:20:07;;;;;;;12.23;7.82;;;;;;;3.83;100.00;102236.63;5041803;28;20519;-72
2022/05/02 05:22:35;;;;;;;11.23;7.03;;;;;;;3.93;100.00;102233.16;5047008;28;20553;-72
2022/05/02 05:25:11;;;;;;;14.15;7.15;;;;;;;4.02;100.00;102226.22;5064563;28;20043;-72
2022/05/02 05:28:01;;;;;;;12.98;7.45;;;;;;;4.11;100.00;102226.28;5013506;28;20134;-72
2022/05/02 05:30:28;;;;;;;13.82;7.32;;;;;;;4.19;100.00;102229.78;5058975;28;20036;-72
2022/05/02 05:33:27;;;;;;;13.48;7.53;;;;;;;4.32;100.00;102219.34;5065165;28;20047;-72
2022/05/02 05:36:03;;;;;;;12.43;7.78;;;;;;;4.45;100.00;102215.00;5041824;28;20375;-72
2022/05/02 05:38:46;;;;;;;14.43;7.80;;;;;;;4.60;100.00;102216.78;5046531;28;20027;-72
2022/05/02 05:41:50;;;;;;;13.63;7.43;;;;;;;4.74;100.00;102216.81;5030136;28;20487;-72
2022/05/02 05:44:29;;;;;;;11.85;7.18;;;;;;;4.86;100.00;102221.19;5039522;28;20393;-70
2022/05/02 05:47:31;;;;;;;14.35;7.70;;;;;;;5.01;100.00;102220.31;5065120;28;20123;-72
2022/05/02 05:50:15;;;;;;;15.40;7.47;;;;;;;5.18;100.00;102216.81;5031844;28;20479;-70
2022/05/02 05:53:17;;;;;;;10.10;6.70;;;;;;;5.43;100.00;102213.28;5041641;28;20093;-72
2022/05/02 05:56:23;;;;;;;10.85;7.32;;;;;;;5.83;100.00;102214.91;5062002;28;20780;-70
2022/05/02 05:59:24;;;;;;;11.55;7.30;;;;;;;6.20;100.00;102216.53;5047054;28;20127;-72
2022/05/02 06:01:56;;;;;;;11.02;7.03;;;;;;;6.48;100.00;102205.84;5030381;28;20063;-72
2022/05/02 06:04:25;;;;;;;10.60;6.70;;;;;;;6.74;100.00;102206.53;5065300;28;20043;-72
2022/05/02 06:06:53;;;;;;;8.57;6.57;;;;;;;6.98;100.00;102208.09;5042110;28;20032;-71
2022/05/02 06:09:20;;;;;;;11.35;7.05;;;;;;;7.21;100.00;102201.78;5041280;28;20591;-72
2022/05/02 06:11:46;;;;;;;10.25;6.57;;;;;;;7.46;100.00;102205.03;5046648;28;20032;-73
2022/05/02 06:14:13;;;;;;;8.40;6.13;;;;;;;7.70;99.63;102208.31;5064983;28;20044;-72
2022/05/02 06:19:36;;;;;;;8.68;6.22;;;;;;;8.19;97.77;102198.03;5068203;28;20035;-72
2022/05/02 06:22:03;;;;;;;9.15;6.47;;;;;;;8.40;97.72;102198.63;5065774;28;20035;-72
2022/05/02 06:24:31;;;;;;;7.65;5.47;;;;;;;8.58;96.58;102200.13;5063883;28;20040;-72
2022/05/02 06:26:59;;;;;;;8.30;5.93;;;;;;;8.78;96.13;102197.16;5065078;28;20024;-72
2022/05/02 06:29:25;;;;;;;7.13;5.32;;;;;;;8.99;95.85;102196.84;5047188;28;20043;-72
2022/05/02 06:31:53;;;;;;;6.30;4.97;;;;;;;9.18;94.83;102200.03;5064178;28;20028;-72
2022/05/02 06:34:23;;;;;;;7.15;5.03;;;;;;;9.35;93.69;102203.25;5041411;28;20031;-72
2022/05/02 06:37:07;;;;;;;6.63;4.95;;;;;;;9.52;93.14;102199.41;5066029;28;20029;-72
2022/05/02 06:39:54;;;;;;;8.65;5.32;;;;;;;9.71;92.44;102205.22;5064956;28;20040;-72
2022/05/02 06:42:39;;;;;;;6.93;5.18;;;;;;;9.90;92.79;102205.69;5059247;28;20661;-72
2022/05/02 06:45:22;;;;;;;8.35;5.18;;;;;;;10.13;91.45;102204.31;5043192;28;20154;-72
2022/05/02 06:47:57;;;;;;;6.30;4.85;;;;;;;10.29;90.88;102204.88;5063842;28;20028;-72
2022/05/02 06:50:25;;;;;;;5.65;4.47;;;;;;;10.48;90.93;102201.84;5024472;28;20085;-72
2022/05/02 06:53:28;;;;;;;4.93;4.28;;;;;;;10.57;88.04;102200.75;5042478;28;20055;-73
2022/05/02 06:55:56;;;;;;;6.03;4.75;;;;;;;10.76;89.03;102206.47;5063700;28;20586;-72
2022/05/02 06:58:40;;;;;;;6.40;4.43;;;;;;;10.95;87.57;102206.88;5029957;28;20128;-72
2022/05/02 07:01:31;;;;;;;8.23;4.50;;;;;;;11.12;88.28;102202.94;5063658;28;20036;-72
2022/05/02 07:04:14;;;;;;;5.22;4.30;;;;;;;11.31;87.50;102197.13;5045309;28;20628;-72
2022/05/02 07:06:48;;;;;;;;;;;;;;;11.45;83.99;102195.00;5042075;28;20044;-72
2022/05/02 07:09:22;;;;;;;6.70;3.72;;;;;;;11.55;85.04;102193.81;5029927;28;21290;-72
2022/05/02 07:12:03;;;;;;;4.18;3.78;;;;;;;11.59;84.68;102193.75;5029319;28;20028;-72
2022/05/02 07:14:45;;;;;;;4.88;4.25;;;;;;;11.81;84.15;102197.50;5066746;28;21433;-72
2022/05/02 07:17:19;;;;;;;4.97;4.13;;;;;;;11.92;83.61;102201.63;5067611;28;20033;-72
2022/05/02 07:20:04;;;;;;;4.03;3.50;;;;;;;12.04;82.31;102197.78;5045428;28;20745;-72
2022/05/02 07:23:06;;;;;;;4.28;3.63;;;;;;;12.15;80.51;102200.09;5067739;28;20332;-72
2022/05/02 07:25:31;;;;;;;4.32;3.63;;;;;;;12.20;81.35;102199.03;5032163;28;20503;-72
2022/05/02 07:28:12;;;;;;;4.70;3.53;;;;;;;12.26;81.29;102199.78;5068880;28;20123;-72
2022/05/02 07:30:38;;;;;;;5.25;3.70;;;;;;;12.34;81.84;102197.75;5069891;28;20036;-72
2022/05/02 07:33:07;;;;;;;4.53;3.78;;;;;;;12.41;80.73;102198.44;5050360;28;20052;-72
2022/05/02 07:35:34;;;;;;;5.28;4.00;;;;;;;12.46;80.63;102202.66;5070161;28;20491;-72
2022/05/02 07:38:01;;;;;;;4.63;3.80;;;;;;;12.56;80.89;102200.59;5048511;28;20032;-73
2022/05/02 07:40:28;;;;;;;5.32;3.65;;;;;;;12.66;79.91;102198.50;5069133;28;20043;-72
2022/05/02 07:42:54;;;;;;;6.75;3.97;;;;;;;12.68;79.30;102203.78;5068298;28;20407;-72
2022/05/02 07:45:26;;;;;;;4.78;3.65;;;;;;;12.74;78.94;102203.53;5066692;28;20329;-72
2022/05/02 07:47:53;;;;;;;7.03;4.20;;;;;;;12.81;79.43;102205.06;5067194;28;20271;-72
2022/05/02 07:50:21;;;;;;;4.15;3.72;;;;;;;12.84;78.66;102210.31;5028089;28;20035;-70
2022/05/02 07:52:48;;;;;;;4.38;3.80;;;;;;;12.86;78.41;102203.16;5045154;28;20128;-70
2022/05/02 07:55:14;;;;;;;6.82;3.95;;;;;;;12.99;78.03;102208.94;5044364;28;20110;-71
2022/05/02 07:57:41;;;;;;;6.28;3.83;;;;;;;13.08;77.23;102204.22;5066658;28;20510;-70
2022/05/02 08:00:08;;;;;;;6.00;4.10;;;;;;;13.19;76.84;102207.38;5066840;28;20044;-70
2022/05/02 08:02:35;;;;;;;4.30;3.40;;;;;;;13.16;75.69;102208.34;5068042;28;20097;-70
2022/05/02 08:05:01;;;;;;;5.13;3.72;;;;;;;13.23;75.31;102210.81;5067059;28;20031;-71
2022/05/02 08:07:44;;;;;;;4.32;3.53;;;;;;;13.34;74.44;102208.63;5066126;28;20275;-71
2022/05/02 08:10:28;;;;;;;3.95;3.22;;;;;;;13.45;74.93;102221.53;5045473;28;20028;-71
2022/05/02 08:13:01;;;;;;;5.53;3.63;;;;;;;13.52;73.41;102206.25;5065977;28;20040;-71
2022/05/02 08:15:41;;;;;;;5.55;3.90;;;;;;;13.55;72.64;102207.03;5066492;28;20102;-71
2022/05/02 08:18:16;;;;;;;6.53;3.88;;;;;;;13.73;73.15;102206.41;5057226;28;20636;-74
2022/05/02 08:21:17;;;;;;;7.57;3.50;;;;;;;13.80;69.44;102214.09;5039714;28;20047;-74
2022/05/02 08:27:21;;;;;;;6.20;3.33;;;;;;;13.75;69.03;102201.88;5044248;28;20029;-72
2022/05/02 08:30:05;;;;;;;3.85;3.42;;;;;;;13.69;69.12;102200.31;5027833;28;20037;-71
2022/05/02 08:32:51;;;;;;;4.13;3.30;;;;;;;13.80;69.24;102205.25;5063137;28;20055;-71
2022/05/02 08:35:48;;;;;;;5.60;3.83;;;;;;;13.88;67.88;102203.16;5064066;28;20074;-71
2022/05/02 08:38:40;;;;;;;6.10;3.60;;;;;;;13.91;68.94;102203.06;5034291;28;20040;-71
2022/05/02 08:41:08;;;;;;;4.15;3.40;;;;;;;13.99;69.83;102202.75;5044254;28;20781;-71
2022/05/02 08:44:11;;;;;;;6.15;3.75;;;;;;;14.02;68.18;102199.09;5039711;28;20146;-71
2022/05/02 08:46:37;;;;;;;5.70;3.70;;;;;;;14.10;68.21;102197.00;5041002;28;20556;-71
2022/05/02 08:49:46;;;;;;;5.75;4.25;;;;;;;14.02;66.62;102199.09;5063920;28;20305;-71
2022/05/02 08:52:40;;;;;;;4.90;3.63;;;;;;;13.95;66.75;102202.00;5046315;28;20345;-71
2022/05/02 08:55:11;;;;;;;7.18;4.10;;;;;;;14.04;69.09;102207.88;5044368;28;20649;-71
2022/05/02 08:57:58;;;;;;;7.05;4.13;;;;;;;14.14;66.77;102203.94;5044747;28;20040;-72
2022/05/02 09:00:47;;;;;;;5.10;4.15;;;;;;;14.23;68.73;102197.41;5063086;28;20122;-71
2022/05/02 09:03:33;;;;;;;4.38;3.60;;;;;;;14.21;65.62;102197.47;5015729;28;20502;-71
2022/05/02 09:06:18;;;;;;;5.80;4.13;;;;;;;14.23;66.68;102203.59;5044872;28;20446;-71
2022/05/02 09:09:12;;;;;;;5.50;3.83;;;;;;;14.47;67.12;102194.66;5041224;28;20533;-71
2022/05/02 09:12:11;;;;;;;4.90;3.63;;;;;;;14.55;66.01;102200.59;5045265;28;20031;-71
2022/05/02 09:14:48;;;;;;;5.70;3.92;;;;;;;14.56;68.26;102199.66;5056698;28;20047;-71
2022/05/02 09:17:51;;;;;;;5.53;4.00;;;;;;;14.63;64.96;102201.13;5044335;28;20040;-71
2022/05/02 09:20:32;;;;;;;5.30;3.67;;;;;;;14.66;65.51;102194.81;5062197;28;20045;-71
2022/05/02 09:23:11;;;;;;;5.18;3.78;;;;;;;14.74;67.88;102192.72;5062395;28;20040;-71
2022/05/02 09:25:40;;;;;;;4.25;3.60;;;;;;;14.76;67.53;102190.00;5006461;28;20077;-72
2022/05/02 09:28:46;;;;;;;5.93;3.88;;;;;;;14.76;63.81;102190.84;5056098;28;20036;-71
2022/05/02 09:31:20;;;;;;;4.40;3.58;;;;;;;14.80;65.75;102178.25;5043170;28;20048;-71
2022/05/02 09:33:49;;;;;;;5.93;3.70;;;;;;;14.86;67.49;102182.47;5027123;28;20044;-71
2022/05/02 09:36:32;;;;;;;6.88;3.83;;;;;;;14.88;66.61;102183.28;5043484;28;20065;-72
2022/05/02 09:39:14;;;;;;;5.55;4.25;;;;;;;14.85;65.59;102181.59;5038513;28;20515;-71
2022/05/02 09:41:58;;;;;;;5.03;3.67;;;;;;;14.94;63.07;102183.03;5056139;28;20090;-71
2022/05/02 09:50:21;;;;;;;7.07;4.13;;;;;;;15.15;63.11;102170.53;5061740;28;20036;-71
2022/05/02 09:53:24;;;;;;;4.93;3.40;;;;;;;15.13;60.31;102172.41;5044582;28;20036;-71
2022/05/02 09:59:17;;;;;;;4.32;3.17;;;;;;;15.19;61.13;102161.47;5023101;28;20124;-72
2022/05/02 10:01:46;;;;;;;5.20;3.58;;;;;;;15.33;61.93;102163.53;4997278;28;20045;-72
2022/05/02 10:04:50;;;;;;;4.38;3.47;;;;;;;15.39;59.37;102162.38;5022598;28;20024;-71
2022/05/02 10:07:18;;;;;;;5.35;3.60;;;;;;;15.38;60.49;102151.78;5037391;28;20185;-72
2022/05/02 10:09:59;;;;;;;3.72;3.30;;;;;;;15.27;60.50;102158.47;5021959;28;20029;-71
2022/05/02 10:12:46;;;;;;;4.45;3.42;;;;;;;15.03;58.24;102155.09;5022827;28;20100;-72
2022/05/02 10:15:21;;;;;;;3.70;2.97;;;;;;;14.99;59.87;102159.66;5016881;28;20099;-71
2022/05/02 10:18:17;;;;;;;3.70;3.05;;;;;;;14.97;56.99;102158.88;5023147;28;20566;-71
2022/05/02 10:20:42;;;;;;;5.13;3.03;;;;;;;15.03;58.62;102150.59;5015164;28;20411;-72
2022/05/02 10:23:27;;;;;;;4.03;2.70;;;;;;;15.04;58.77;102151.50;5033059;28;20033;-71
2022/05/02 10:25:58;;;;;;;3.03;2.60;;;;;;;15.12;57.48;102153.78;5025742;28;20037;-71
2022/05/02 10:28:41;;;;;;;4.50;3.10;;;;;;;15.15;57.75;102156.34;5037610;28;20041;-72
2022/05/02 10:31:13;;;;;;;;;;;;;;;15.12;54.98;102156.47;5008210;28;20078;-72
2022/05/02 10:33:46;;;;;;;5.32;3.17;;;;;;;14.94;56.39;102151.88;5032358;28;19920;-71
2022/05/02 10:36:12;;;;;;;3.78;2.85;;;;;;;14.88;57.88;102151.28;5036891;28;20040;-71
2022/05/02 10:38:51;;;;;;;4.15;2.75;;;;;;;14.88;55.88;102145.94;5023767;28;20652;-72
2022/05/02 10:41:24;;;;;;;3.80;2.92;;;;;;;14.84;57.11;102139.88;5002852;28;20113;-71
2022/05/02 10:43:53;;;;;;;5.18;3.45;;;;;;;14.92;57.31;102143.06;5024098;28;20049;-72
2022/05/02 10:46:21;;;;;;;4.00;3.15;;;;;;;14.91;56.99;102136.03;5032352;28;20524;-72
2022/05/02 10:48:51;;;;;;;3.63;2.88;;;;;;;14.93;55.07;102127.97;5038182;28;20060;-71
2022/05/02 10:51:32;;;;;;;4.80;3.05;;;;;;;14.87;55.11;102134.41;5028062;28;20043;-72
2022/05/02 10:54:08;;;;;;;4.78;3.10;;;;;;;15.05;57.78;102132.72;5037534;28;20051;-71
2022/05/02 10:56:44;;;;;;;3.33;2.90;;;;;;;15.22;56.64;102136.47;5030121;28;20083;-71
2022/05/02 10:59:14;;;;;;;3.30;2.80;;;;;;;15.27;56.30;102134.47;5043217;28;20128;-71
2022/05/02 11:02:01;;;;;;;3.85;3.00;;;;;;;15.27;55.34;102131.81;5044205;28;20031;-71
2022/05/02 11:04:52;;;;;;;4.80;2.88;;;;;;;15.26;54.56;102132.72;5039022;28;20040;-71
2022/05/02 11:07:28;;;;;;;4.03;2.85;;;;;;;15.23;55.75;102124.84;5039564;28;20033;-71
2022/05/02 11:10:07;;;;;;;4.85;3.20;;;;;;;15.16;54.91;102126.91;5057356;28;20033;-71
2022/05/02 11:12:42;;;;;;;3.92;2.95;;;;;;;15.20;55.76;102125.00;5045132;28;20033;-71
2022/05/02 11:15:09;;;;;;;5.03;3.08;;;;;;;15.27;56.47;102115.78;5046480;28;20040;-71
2022/05/02 11:21:41;;;;;;;3.17;2.75;;;;;;;15.53;54.44;102116.38;4957693;28;20053;-71
2022/05/02 11:24:30;;;;;;;3.20;2.90;;;;;;;15.59;55.65;102110.75;4851347;28;20273;-71
2022/05/02 11:27:36;;;;;;;4.28;2.78;;;;;;;15.57;54.19;102103.75;4948673;28;20062;-72
2022/05/02 11:30:06;;;;;;;3.50;2.80;;;;;;;15.53;55.32;102111.03;4914723;28;20045;-70
2022/05/02 11:32:53;;;;;;;4.28;2.78;;;;;;;15.60;55.35;102100.97;4927463;28;20043;-70
2022/05/02 11:35:24;;;;;;;4.00;2.92;;;;;;;15.74;55.20;102103.84;4949866;28;20026;-70
2022/05/02 11:38:14;;;;;;;3.97;2.58;;;;;;;15.74;53.83;102109.19;4940134;28;20373;-71
2022/05/02 11:40:47;;;;;;;3.08;2.60;;;;;;;15.83;52.54;102109.66;4940149;28;20039;-71
2022/05/02 11:43:22;;;;;;;2.78;2.28;;;;;;;15.88;51.67;102111.22;4956536;28;20041;-71
2022/05/02 11:45:57;;;;;;;3.50;2.70;;;;;;;15.80;52.34;102113.34;4943126;28;20058;-71
2022/05/02 11:48:22;;;;;;;2.97;2.45;;;;;;;15.78;52.98;102101.00;4944774;28;20993;-71
2022/05/02 11:50:48;;;;;;;4.35;2.28;;;;;;;15.79;53.52;102110.78;4978275;28;20538;-75
2022/05/02 11:53:16;;;;;;;3.55;2.47;;;;;;;15.71;53.45;102100.44;5045121;28;20926;-74
2022/05/02 11:55:44;;;;;;;2.50;2.30;;;;;;;15.69;52.81;102107.69;5047748;28;20040;-77
2022/05/02 11:58:24;;;;;;;3.30;2.33;;;;;;;15.69;50.15;102095.19;5067693;28;20040;-75
2022/05/02 12:00:53;;;;;;;2.78;2.42;;;;;;;15.52;52.21;102098.63;5063485;28;20036;-75
2022/05/02 12:03:25;;;;;;;2.58;2.22;;;;;;;15.41;50.48;102095.63;5047191;28;20502;-74
2022/05/02 12:06:04;;;;;;;2.45;2.25;;;;;;;15.37;50.91;102097.56;5027038;28;20057;-75
2022/05/02 12:08:39;;;;;;;2.75;2.20;;;;;;;15.38;51.82;102093.97;5030899;28;20120;-76
2022/05/02 12:11:04;;;;;;;3.40;2.38;;;;;;;15.47;52.24;102095.31;5058389;28;20040;-73
2022/05/02 12:13:35;;;;;;;3.08;2.40;;;;;;;15.52;51.49;102093.31;5048056;28;20028;-74
2022/05/02 12:16:21;;;;;;;2.75;2.25;;;;;;;15.56;50.06;102097.56;5049931;28;20059;-74
2022/05/02 12:18:55;;;;;;;3.38;2.70;;;;;;;15.53;51.79;102094.19;5029275;28;20047;-74
2022/05/02 12:21:41;;;;;;;2.85;2.40;;;;;;;15.47;51.21;102088.19;5044803;28;20039;-74